sensor_id;sensor_type;location;lat;lon;timestamp;temperature;humidity
49224;DHT22;35050;51.316;5.994;2023-11-21T00:02:15;8.50;99.90
49224;DHT22;35050;51.316;5.994;2023-11-21T00:04:40;8.40;99.90
49224;DHT22;35050;51.316;5.994;2023-11-21T00:07:06;8.50;99.90
49224;DHT22;35050;51.316;5.994;2023-11-21T00:09:32;8.50;99.90
49224;DHT22;35050;51.316;5.994;2023-11-21T00:11:58;8.60;99.90
49224;DHT22;35050;51.316;5.994;2023-11-21T00:14:28;8.50;99.90
49224;DHT22;35050;51.316;5.994;2023-11-21T00:16:53;8.50;99.90
49224;DHT22;35050;51.316;5.994;2023-11-21T00:19:19;8.60;99.90
49224;DHT22;35050;51.316;5.994;2023-11-21T00:21:45;8.50;99.90
49224;DHT22;35050;51.316;5.994;2023-11-21T00:24:12;8.50;99.90
49224;DHT22;35050;51.316;5.994;2023-11-21T00:26:39;8.60;99.90
49224;DHT22;35050;51.316;5.994;2023-11-21T00:29:05;8.60;99.90
49224;DHT22;35050;51.316;5.994;2023-11-21T00:31:36;8.60;99.90
49224;DHT22;35050;51.316;5.994;2023-11-21T00:34:03;8.70;99.90
49224;DHT22;35050;51.316;5.994;2023-11-21T00:36:31;8.70;99.90
49224;DHT22;35050;51.316;5.994;2023-11-21T00:38:58;8.60;99.90
49224;DHT22;35050;51.316;5.994;2023-11-21T00:41:24;8.70;99.90
49224;DHT22;35050;51.316;5.994;2023-11-21T00:43:53;8.70;99.90
49224;DHT22;35050;51.316;5.994;2023-11-21T00:46:19;8.70;99.90
49224;DHT22;35050;51.316;5.994;2023-11-21T00:48:44;8.70;99.90
49224;DHT22;35050;51.316;5.994;2023-11-21T00:51:10;8.70;99.90
49224;DHT22;35050;51.316;5.994;2023-11-21T00:53:35;8.70;99.90
49224;DHT22;35050;51.316;5.994;2023-11-21T00:56:01;8.70;99.90
49224;DHT22;35050;51.316;5.994;2023-11-21T00:58:28;8.70;99.90
49224;DHT22;35050;51.316;5.994;2023-11-21T01:00:53;8.80;99.90
49224;DHT22;35050;51.316;5.994;2023-11-21T01:03:19;8.80;99.90
49224;DHT22;35050;51.316;5.994;2023-11-21T01:05:45;8.70;99.90
49224;DHT22;35050;51.316;5.994;2023-11-21T01:08:11;8.80;99.90
49224;DHT22;35050;51.316;5.994;2023-11-21T01:10:37;8.90;99.90
49224;DHT22;35050;51.316;5.994;2023-11-21T01:13:03;8.80;99.90
49224;DHT22;35050;51.316;5.994;2023-11-21T01:15:35;8.90;99.90
49224;DHT22;35050;51.316;5.994;2023-11-21T01:18:01;8.90;99.90
49224;DHT22;35050;51.316;5.994;2023-11-21T01:20:26;8.90;99.90
49224;DHT22;35050;51.316;5.994;2023-11-21T01:22:52;8.90;99.90
49224;DHT22;35050;51.316;5.994;2023-11-21T01:25:19;9.00;99.90
49224;DHT22;35050;51.316;5.994;2023-11-21T01:27:46;9.00;99.90
49224;DHT22;35050;51.316;5.994;2023-11-21T01:30:12;9.00;99.90
49224;DHT22;35050;51.316;5.994;2023-11-21T01:32:38;9.00;99.90
49224;DHT22;35050;51.316;5.994;2023-11-21T01:35:05;9.00;99.90
49224;DHT22;35050;51.316;5.994;2023-11-21T01:37:32;9.00;99.90
49224;DHT22;35050;51.316;5.994;2023-11-21T01:39:59;9.00;99.90
49224;DHT22;35050;51.316;5.994;2023-11-21T01:42:26;9.00;99.90
49224;DHT22;35050;51.316;5.994;2023-11-21T01:44:52;8.90;99.90
49224;DHT22;35050;51.316;5.994;2023-11-21T01:47:19;9.00;99.90
49224;DHT22;35050;51.316;5.994;2023-11-21T01:49:46;9.00;99.90
49224;DHT22;35050;51.316;5.994;2023-11-21T01:52:12;9.00;99.90
49224;DHT22;35050;51.316;5.994;2023-11-21T01:54:38;8.90;99.90
49224;DHT22;35050;51.316;5.994;2023-11-21T01:57:05;9.00;99.90
49224;DHT22;35050;51.316;5.994;2023-11-21T01:59:35;8.90;99.90
49224;DHT22;35050;51.316;5.994;2023-11-21T02:02:05;8.90;99.90
49224;DHT22;35050;51.316;5.994;2023-11-21T02:04:35;9.00;99.90
49224;DHT22;35050;51.316;5.994;2023-11-21T02:07:02;9.00;99.90
49224;DHT22;35050;51.316;5.994;2023-11-21T02:09:31;9.00;99.90
49224;DHT22;35050;51.316;5.994;2023-11-21T02:12:00;9.00;99.90
49224;DHT22;35050;51.316;5.994;2023-11-21T02:14:27;9.00;99.90
49224;DHT22;35050;51.316;5.994;2023-11-21T02:16:54;9.00;99.90
49224;DHT22;35050;51.316;5.994;2023-11-21T02:19:21;9.00;99.90
49224;DHT22;35050;51.316;5.994;2023-11-21T02:21:56;9.00;99.90
49224;DHT22;35050;51.316;5.994;2023-11-21T02:24:28;8.90;99.90
49224;DHT22;35050;51.316;5.994;2023-11-21T02:26:54;8.90;99.90
49224;DHT22;35050;51.316;5.994;2023-11-21T02:29:21;9.00;99.90
49224;DHT22;35050;51.316;5.994;2023-11-21T02:31:56;9.00;99.90
49224;DHT22;35050;51.316;5.994;2023-11-21T02:34:22;9.00;99.90
49224;DHT22;35050;51.316;5.994;2023-11-21T02:36:49;9.00;99.90
49224;DHT22;35050;51.316;5.994;2023-11-21T02:39:17;9.00;99.90
49224;DHT22;35050;51.316;5.994;2023-11-21T02:41:44;8.90;99.90
49224;DHT22;35050;51.316;5.994;2023-11-21T02:44:10;8.90;99.90
49224;DHT22;35050;51.316;5.994;2023-11-21T02:46:36;9.00;99.90
49224;DHT22;35050;51.316;5.994;2023-11-21T02:49:06;8.90;99.90
49224;DHT22;35050;51.316;5.994;2023-11-21T02:51:32;9.00;99.90
49224;DHT22;35050;51.316;5.994;2023-11-21T02:53:58;9.00;99.90
49224;DHT22;35050;51.316;5.994;2023-11-21T02:56:27;9.00;99.90
49224;DHT22;35050;51.316;5.994;2023-11-21T02:58:55;9.00;99.90
49224;DHT22;35050;51.316;5.994;2023-11-21T03:01:22;9.00;99.90
49224;DHT22;35050;51.316;5.994;2023-11-21T03:03:49;9.10;99.90
49224;DHT22;35050;51.316;5.994;2023-11-21T03:06:17;9.00;99.90
49224;DHT22;35050;51.316;5.994;2023-11-21T03:08:43;9.10;99.90
49224;DHT22;35050;51.316;5.994;2023-11-21T03:11:08;9.10;99.90
49224;DHT22;35050;51.316;5.994;2023-11-21T03:13:34;9.10;99.90
49224;DHT22;35050;51.316;5.994;2023-11-21T03:15:59;9.10;99.90
49224;DHT22;35050;51.316;5.994;2023-11-21T03:18:25;9.10;99.90
49224;DHT22;35050;51.316;5.994;2023-11-21T03:20:52;9.10;99.90
49224;DHT22;35050;51.316;5.994;2023-11-21T03:23:18;9.00;99.90
49224;DHT22;35050;51.316;5.994;2023-11-21T03:25:44;9.00;99.90
49224;DHT22;35050;51.316;5.994;2023-11-21T03:28:10;9.10;99.90
49224;DHT22;35050;51.316;5.994;2023-11-21T03:30:35;9.10;99.90
49224;DHT22;35050;51.316;5.994;2023-11-21T03:33:01;9.10;99.90
49224;DHT22;35050;51.316;5.994;2023-11-21T03:35:27;9.10;99.90
49224;DHT22;35050;51.316;5.994;2023-11-21T03:37:53;9.20;99.90
49224;DHT22;35050;51.316;5.994;2023-11-21T03:40:19;9.20;99.90
49224;DHT22;35050;51.316;5.994;2023-11-21T03:42:47;9.10;99.90
49224;DHT22;35050;51.316;5.994;2023-11-21T03:45:12;9.10;99.90
49224;DHT22;35050;51.316;5.994;2023-11-21T03:47:38;9.20;99.90
49224;DHT22;35050;51.316;5.994;2023-11-21T03:50:04;9.10;99.90
49224;DHT22;35050;51.316;5.994;2023-11-21T03:52:30;9.20;99.90
49224;DHT22;35050;51.316;5.994;2023-11-21T03:54:56;9.10;99.90
49224;DHT22;35050;51.316;5.994;2023-11-21T03:57:22;9.10;99.90
49224;DHT22;35050;51.316;5.994;2023-11-21T03:59:47;9.10;99.90
49224;DHT22;35050;51.316;5.994;2023-11-21T04:02:13;9.10;99.90
49224;DHT22;35050;51.316;5.994;2023-11-21T04:04:38;9.10;99.90
49224;DHT22;35050;51.316;5.994;2023-11-21T04:07:04;9.10;99.90
49224;DHT22;35050;51.316;5.994;2023-11-21T04:09:30;9.10;99.90
49224;DHT22;35050;51.316;5.994;2023-11-21T04:11:56;9.10;99.90
49224;DHT22;35050;51.316;5.994;2023-11-21T04:14:22;9.10;99.90
49224;DHT22;35050;51.316;5.994;2023-11-21T04:16:48;9.00;99.90
49224;DHT22;35050;51.316;5.994;2023-11-21T04:19:14;9.00;99.90
49224;DHT22;35050;51.316;5.994;2023-11-21T04:21:41;9.00;99.90
49224;DHT22;35050;51.316;5.994;2023-11-21T04:24:07;9.10;99.90
49224;DHT22;35050;51.316;5.994;2023-11-21T04:26:33;9.10;99.90
49224;DHT22;35050;51.316;5.994;2023-11-21T04:28:58;9.10;99.90
49224;DHT22;35050;51.316;5.994;2023-11-21T04:31:24;9.00;99.90
49224;DHT22;35050;51.316;5.994;2023-11-21T04:33:50;9.00;99.90
49224;DHT22;35050;51.316;5.994;2023-11-21T04:36:15;9.00;99.90
49224;DHT22;35050;51.316;5.994;2023-11-21T04:38:41;9.00;99.90
49224;DHT22;35050;51.316;5.994;2023-11-21T04:41:07;9.00;99.90
49224;DHT22;35050;51.316;5.994;2023-11-21T04:43:33;9.10;99.90
49224;DHT22;35050;51.316;5.994;2023-11-21T04:45:58;9.00;99.90
49224;DHT22;35050;51.316;5.994;2023-11-21T04:48:25;9.00;99.90
49224;DHT22;35050;51.316;5.994;2023-11-21T04:50:50;9.00;99.90
49224;DHT22;35050;51.316;5.994;2023-11-21T04:53:17;9.00;99.90
49224;DHT22;35050;51.316;5.994;2023-11-21T04:55:42;9.00;99.90
49224;DHT22;35050;51.316;5.994;2023-11-21T04:58:09;9.00;99.90
49224;DHT22;35050;51.316;5.994;2023-11-21T05:00:35;9.00;99.90
49224;DHT22;35050;51.316;5.994;2023-11-21T05:03:02;9.00;99.90
49224;DHT22;35050;51.316;5.994;2023-11-21T05:05:29;9.00;99.90
49224;DHT22;35050;51.316;5.994;2023-11-21T05:07:55;8.90;99.90
49224;DHT22;35050;51.316;5.994;2023-11-21T05:10:21;8.90;99.90
49224;DHT22;35050;51.316;5.994;2023-11-21T05:12:48;8.90;99.90
49224;DHT22;35050;51.316;5.994;2023-11-21T05:15:16;8.90;99.90
49224;DHT22;35050;51.316;5.994;2023-11-21T05:17:43;8.90;99.90
49224;DHT22;35050;51.316;5.994;2023-11-21T05:20:15;8.80;99.90
49224;DHT22;35050;51.316;5.994;2023-11-21T05:22:49;9.00;99.90
49224;DHT22;35050;51.316;5.994;2023-11-21T05:25:15;8.90;99.90
49224;DHT22;35050;51.316;5.994;2023-11-21T05:27:44;8.70;99.90
49224;DHT22;35050;51.316;5.994;2023-11-21T05:30:10;8.80;99.90
49224;DHT22;35050;51.316;5.994;2023-11-21T05:32:38;8.80;99.90
49224;DHT22;35050;51.316;5.994;2023-11-21T05:35:04;8.80;99.90
49224;DHT22;35050;51.316;5.994;2023-11-21T05:37:35;8.80;99.90
49224;DHT22;35050;51.316;5.994;2023-11-21T05:40:01;8.90;99.90
49224;DHT22;35050;51.316;5.994;2023-11-21T05:42:34;8.80;99.90
49224;DHT22;35050;51.316;5.994;2023-11-21T05:45:00;8.80;99.90
49224;DHT22;35050;51.316;5.994;2023-11-21T05:47:43;8.90;99.90
49224;DHT22;35050;51.316;5.994;2023-11-21T05:50:10;8.90;99.90
49224;DHT22;35050;51.316;5.994;2023-11-21T05:52:38;8.80;99.90
49224;DHT22;35050;51.316;5.994;2023-11-21T05:55:05;8.80;99.90
49224;DHT22;35050;51.316;5.994;2023-11-21T05:57:38;8.80;99.90
49224;DHT22;35050;51.316;5.994;2023-11-21T06:00:12;8.80;99.90
49224;DHT22;35050;51.316;5.994;2023-11-21T06:02:46;8.90;99.90
49224;DHT22;35050;51.316;5.994;2023-11-21T06:05:12;8.90;99.90
49224;DHT22;35050;51.316;5.994;2023-11-21T06:07:38;8.80;99.90
49224;DHT22;35050;51.316;5.994;2023-11-21T06:10:07;8.90;99.90
49224;DHT22;35050;51.316;5.994;2023-11-21T06:12:37;8.90;99.90
49224;DHT22;35050;51.316;5.994;2023-11-21T06:15:04;9.00;99.90
49224;DHT22;35050;51.316;5.994;2023-11-21T06:17:31;9.00;99.90
49224;DHT22;35050;51.316;5.994;2023-11-21T06:19:57;9.00;99.90
49224;DHT22;35050;51.316;5.994;2023-11-21T06:22:22;9.00;99.90
49224;DHT22;35050;51.316;5.994;2023-11-21T06:24:48;9.00;99.90
49224;DHT22;35050;51.316;5.994;2023-11-21T06:27:14;8.90;99.90
49224;DHT22;35050;51.316;5.994;2023-11-21T06:29:39;9.00;99.90
49224;DHT22;35050;51.316;5.994;2023-11-21T06:32:05;9.00;99.90
49224;DHT22;35050;51.316;5.994;2023-11-21T06:34:31;8.90;99.90
49224;DHT22;35050;51.316;5.994;2023-11-21T06:36:56;9.00;99.90
49224;DHT22;35050;51.316;5.994;2023-11-21T06:39:22;9.00;99.90
49224;DHT22;35050;51.316;5.994;2023-11-21T06:41:51;9.00;99.90
49224;DHT22;35050;51.316;5.994;2023-11-21T06:44:17;8.90;99.90
49224;DHT22;35050;51.316;5.994;2023-11-21T06:46:42;9.10;99.90
49224;DHT22;35050;51.316;5.994;2023-11-21T06:49:08;9.10;99.90
49224;DHT22;35050;51.316;5.994;2023-11-21T06:51:34;9.00;99.90
49224;DHT22;35050;51.316;5.994;2023-11-21T06:54:00;9.00;99.90
49224;DHT22;35050;51.316;5.994;2023-11-21T06:56:25;9.10;99.90
49224;DHT22;35050;51.316;5.994;2023-11-21T06:58:51;9.00;99.90
49224;DHT22;35050;51.316;5.994;2023-11-21T07:01:19;9.10;99.90
49224;DHT22;35050;51.316;5.994;2023-11-21T07:03:45;9.10;99.90
49224;DHT22;35050;51.316;5.994;2023-11-21T07:06:11;9.10;99.90
49224;DHT22;35050;51.316;5.994;2023-11-21T07:08:37;9.10;99.90
49224;DHT22;35050;51.316;5.994;2023-11-21T07:11:03;9.20;99.90
49224;DHT22;35050;51.316;5.994;2023-11-21T07:13:29;9.20;99.90
49224;DHT22;35050;51.316;5.994;2023-11-21T07:15:55;9.20;99.90
49224;DHT22;35050;51.316;5.994;2023-11-21T07:18:21;9.10;99.90
49224;DHT22;35050;51.316;5.994;2023-11-21T07:20:46;9.20;99.90
49224;DHT22;35050;51.316;5.994;2023-11-21T07:23:12;9.10;99.90
49224;DHT22;35050;51.316;5.994;2023-11-21T07:25:37;9.10;99.90
49224;DHT22;35050;51.316;5.994;2023-11-21T07:28:03;9.20;99.90
49224;DHT22;35050;51.316;5.994;2023-11-21T07:30:30;9.20;99.90
49224;DHT22;35050;51.316;5.994;2023-11-21T07:32:56;9.20;99.90
49224;DHT22;35050;51.316;5.994;2023-11-21T07:35:22;9.20;99.90
49224;DHT22;35050;51.316;5.994;2023-11-21T07:37:47;9.20;99.90
49224;DHT22;35050;51.316;5.994;2023-11-21T07:40:14;9.20;99.90
49224;DHT22;35050;51.316;5.994;2023-11-21T07:42:41;9.20;99.90
49224;DHT22;35050;51.316;5.994;2023-11-21T07:45:08;9.30;99.90
49224;DHT22;35050;51.316;5.994;2023-11-21T07:47:34;9.20;99.90
49224;DHT22;35050;51.316;5.994;2023-11-21T07:50:01;9.30;99.90
49224;DHT22;35050;51.316;5.994;2023-11-21T07:52:28;9.20;99.90
49224;DHT22;35050;51.316;5.994;2023-11-21T07:54:54;9.30;99.90
49224;DHT22;35050;51.316;5.994;2023-11-21T07:57:19;9.30;99.90
49224;DHT22;35050;51.316;5.994;2023-11-21T07:59:45;9.30;99.90
49224;DHT22;35050;51.316;5.994;2023-11-21T08:02:11;9.30;99.90
49224;DHT22;35050;51.316;5.994;2023-11-21T08:04:36;9.30;99.90
49224;DHT22;35050;51.316;5.994;2023-11-21T08:07:02;9.20;99.90
49224;DHT22;35050;51.316;5.994;2023-11-21T08:09:29;9.30;99.90
49224;DHT22;35050;51.316;5.994;2023-11-21T08:11:55;9.40;99.90
49224;DHT22;35050;51.316;5.994;2023-11-21T08:14:20;9.30;99.90
49224;DHT22;35050;51.316;5.994;2023-11-21T08:16:46;9.30;99.90
49224;DHT22;35050;51.316;5.994;2023-11-21T08:19:12;9.30;99.90
49224;DHT22;35050;51.316;5.994;2023-11-21T08:21:38;9.40;99.90
49224;DHT22;35050;51.316;5.994;2023-11-21T08:24:06;9.40;99.90
49224;DHT22;35050;51.316;5.994;2023-11-21T08:26:36;9.40;99.90
49224;DHT22;35050;51.316;5.994;2023-11-21T08:29:02;9.40;99.90
49224;DHT22;35050;51.316;5.994;2023-11-21T08:31:27;9.40;99.90
49224;DHT22;35050;51.316;5.994;2023-11-21T08:33:54;9.50;99.90
49224;DHT22;35050;51.316;5.994;2023-11-21T08:36:21;9.50;99.90
49224;DHT22;35050;51.316;5.994;2023-11-21T08:38:49;9.50;99.90
49224;DHT22;35050;51.316;5.994;2023-11-21T08:41:17;9.40;99.90
49224;DHT22;35050;51.316;5.994;2023-11-21T08:43:43;9.40;99.90
49224;DHT22;35050;51.316;5.994;2023-11-21T08:46:10;9.50;99.90
49224;DHT22;35050;51.316;5.994;2023-11-21T08:48:36;9.60;99.90
49224;DHT22;35050;51.316;5.994;2023-11-21T08:51:03;9.50;99.90
49224;DHT22;35050;51.316;5.994;2023-11-21T08:53:29;9.40;99.90
49224;DHT22;35050;51.316;5.994;2023-11-21T08:55:56;9.50;99.90
49224;DHT22;35050;51.316;5.994;2023-11-21T08:58:22;9.50;99.90
49224;DHT22;35050;51.316;5.994;2023-11-21T09:00:47;9.60;99.90
49224;DHT22;35050;51.316;5.994;2023-11-21T09:03:13;9.60;99.90
49224;DHT22;35050;51.316;5.994;2023-11-21T09:05:39;9.60;99.90
49224;DHT22;35050;51.316;5.994;2023-11-21T09:08:05;9.50;99.90
49224;DHT22;35050;51.316;5.994;2023-11-21T09:10:33;9.60;99.90
49224;DHT22;35050;51.316;5.994;2023-11-21T09:13:01;9.70;99.90
49224;DHT22;35050;51.316;5.994;2023-11-21T09:15:27;9.80;99.90
49224;DHT22;35050;51.316;5.994;2023-11-21T09:17:53;9.70;99.90
49224;DHT22;35050;51.316;5.994;2023-11-21T09:20:18;9.60;99.90
49224;DHT22;35050;51.316;5.994;2023-11-21T09:22:48;9.70;99.90
49224;DHT22;35050;51.316;5.994;2023-11-21T09:25:14;9.70;99.90
49224;DHT22;35050;51.316;5.994;2023-11-21T09:27:40;9.70;99.90
49224;DHT22;35050;51.316;5.994;2023-11-21T09:30:07;9.70;99.90
49224;DHT22;35050;51.316;5.994;2023-11-21T09:32:35;9.80;99.90
49224;DHT22;35050;51.316;5.994;2023-11-21T09:35:05;9.80;99.90
49224;DHT22;35050;51.316;5.994;2023-11-21T09:37:33;9.80;99.90
49224;DHT22;35050;51.316;5.994;2023-11-21T09:39:59;9.90;99.90
49224;DHT22;35050;51.316;5.994;2023-11-21T09:42:54;9.90;99.90
49224;DHT22;35050;51.316;5.994;2023-11-21T09:45:27;9.80;99.90
49224;DHT22;35050;51.316;5.994;2023-11-21T09:47:55;9.90;99.90
49224;DHT22;35050;51.316;5.994;2023-11-21T09:50:24;9.90;99.90
49224;DHT22;35050;51.316;5.994;2023-11-21T09:52:57;9.90;99.90
49224;DHT22;35050;51.316;5.994;2023-11-21T09:55:27;10.00;99.90
49224;DHT22;35050;51.316;5.994;2023-11-21T09:57:56;10.00;99.90
49224;DHT22;35050;51.316;5.994;2023-11-21T10:00:22;10.00;99.90
49224;DHT22;35050;51.316;5.994;2023-11-21T10:02:53;10.10;99.90
49224;DHT22;35050;51.316;5.994;2023-11-21T10:05:19;10.10;99.90
49224;DHT22;35050;51.316;5.994;2023-11-21T10:07:48;10.20;99.90
49224;DHT22;35050;51.316;5.994;2023-11-21T10:10:18;10.20;99.90
49224;DHT22;35050;51.316;5.994;2023-11-21T10:12:52;10.20;99.90
49224;DHT22;35050;51.316;5.994;2023-11-21T10:15:24;10.40;99.90
49224;DHT22;35050;51.316;5.994;2023-11-21T10:17:54;10.20;99.90
49224;DHT22;35050;51.316;5.994;2023-11-21T10:20:20;10.30;99.90
49224;DHT22;35050;51.316;5.994;2023-11-21T10:22:47;10.40;99.90
49224;DHT22;35050;51.316;5.994;2023-11-21T10:25:13;10.40;99.90
49224;DHT22;35050;51.316;5.994;2023-11-21T10:27:47;10.40;99.90
49224;DHT22;35050;51.316;5.994;2023-11-21T10:30:13;10.40;99.90
49224;DHT22;35050;51.316;5.994;2023-11-21T10:32:42;10.50;99.90
49224;DHT22;35050;51.316;5.994;2023-11-21T10:35:08;10.40;99.90
49224;DHT22;35050;51.316;5.994;2023-11-21T10:37:38;10.50;99.90
49224;DHT22;35050;51.316;5.994;2023-11-21T10:40:10;10.50;99.90
49224;DHT22;35050;51.316;5.994;2023-11-21T10:42:39;10.60;99.90
49224;DHT22;35050;51.316;5.994;2023-11-21T10:45:06;10.70;99.90
49224;DHT22;35050;51.316;5.994;2023-11-21T10:47:41;10.80;99.90
49224;DHT22;35050;51.316;5.994;2023-11-21T10:50:07;10.80;99.90
49224;DHT22;35050;51.316;5.994;2023-11-21T10:52:39;10.70;99.90
49224;DHT22;35050;51.316;5.994;2023-11-21T10:55:19;10.70;99.90
49224;DHT22;35050;51.316;5.994;2023-11-21T10:57:52;10.70;99.90
49224;DHT22;35050;51.316;5.994;2023-11-21T11:00:19;10.70;99.90
49224;DHT22;35050;51.316;5.994;2023-11-21T11:02:53;10.70;99.90
49224;DHT22;35050;51.316;5.994;2023-11-21T11:05:24;10.60;99.90
49224;DHT22;35050;51.316;5.994;2023-11-21T11:08:25;10.60;99.90
49224;DHT22;35050;51.316;5.994;2023-11-21T11:10:45;10.70;99.90
49224;DHT22;35050;51.316;5.994;2023-11-21T11:13:13;10.80;99.90
49224;DHT22;35050;51.316;5.994;2023-11-21T11:15:40;10.70;99.90
49224;DHT22;35050;51.316;5.994;2023-11-21T11:18:06;10.70;99.90
49224;DHT22;35050;51.316;5.994;2023-11-21T11:20:35;10.70;99.90
49224;DHT22;35050;51.316;5.994;2023-11-21T11:23:45;10.60;99.90
49224;DHT22;35050;51.316;5.994;2023-11-21T11:28:44;10.80;99.90
49224;DHT22;35050;51.316;5.994;2023-11-21T11:34:41;10.80;99.90
49224;DHT22;35050;51.316;5.994;2023-11-21T11:37:05;10.80;99.90
49224;DHT22;35050;51.316;5.994;2023-11-21T11:39:38;10.90;99.90
49224;DHT22;35050;51.316;5.994;2023-11-21T11:42:08;10.90;99.90
49224;DHT22;35050;51.316;5.994;2023-11-21T11:47:20;11.00;99.90
49224;DHT22;35050;51.316;5.994;2023-11-21T11:50:05;10.90;99.90
49224;DHT22;35050;51.316;5.994;2023-11-21T11:52:54;11.00;99.90
49224;DHT22;35050;51.316;5.994;2023-11-21T11:55:23;11.00;99.90
49224;DHT22;35050;51.316;5.994;2023-11-21T11:57:53;11.00;99.90
49224;DHT22;35050;51.316;5.994;2023-11-21T12:00:23;11.00;99.90
49224;DHT22;35050;51.316;5.994;2023-11-21T12:03:01;11.00;99.90
49224;DHT22;35050;51.316;5.994;2023-11-21T12:05:32;11.00;99.90
49224;DHT22;35050;51.316;5.994;2023-11-21T12:08:00;11.00;99.90
49224;DHT22;35050;51.316;5.994;2023-11-21T12:10:28;10.90;99.90
49224;DHT22;35050;51.316;5.994;2023-11-21T12:13:05;10.90;99.90
49224;DHT22;35050;51.316;5.994;2023-11-21T12:15:33;11.00;99.90
49224;DHT22;35050;51.316;5.994;2023-11-21T12:17:58;11.10;99.90
49224;DHT22;35050;51.316;5.994;2023-11-21T12:20:25;11.10;99.90
49224;DHT22;35050;51.316;5.994;2023-11-21T12:22:55;11.20;99.90
49224;DHT22;35050;51.316;5.994;2023-11-21T12:25:23;11.20;99.90
49224;DHT22;35050;51.316;5.994;2023-11-21T12:27:52;11.20;99.90
49224;DHT22;35050;51.316;5.994;2023-11-21T12:30:20;11.10;99.90
49224;DHT22;35050;51.316;5.994;2023-11-21T12:32:51;10.90;99.90
49224;DHT22;35050;51.316;5.994;2023-11-21T12:35:18;10.90;99.90
49224;DHT22;35050;51.316;5.994;2023-11-21T12:37:45;10.90;99.90
49224;DHT22;35050;51.316;5.994;2023-11-21T12:40:12;10.90;99.90
49224;DHT22;35050;51.316;5.994;2023-11-21T12:47:55;10.80;99.90
49224;DHT22;35050;51.316;5.994;2023-11-21T12:50:23;11.00;99.90
49224;DHT22;35050;51.316;5.994;2023-11-21T12:52:52;11.00;99.90
49224;DHT22;35050;51.316;5.994;2023-11-21T12:55:20;11.00;99.90
49224;DHT22;35050;51.316;5.994;2023-11-21T12:57:54;11.00;99.90
49224;DHT22;35050;51.316;5.994;2023-11-21T13:00:28;11.00;99.90
49224;DHT22;35050;51.316;5.994;2023-11-21T13:02:55;10.90;99.90
49224;DHT22;35050;51.316;5.994;2023-11-21T13:05:29;10.90;99.90
49224;DHT22;35050;51.316;5.994;2023-11-21T13:08:01;10.80;99.90
49224;DHT22;35050;51.316;5.994;2023-11-21T13:10:34;10.70;99.90
49224;DHT22;35050;51.316;5.994;2023-11-21T13:13:06;10.80;99.90
49224;DHT22;35050;51.316;5.994;2023-11-21T13:15:34;10.80;99.90
49224;DHT22;35050;51.316;5.994;2023-11-21T13:18:02;10.80;99.90
49224;DHT22;35050;51.316;5.994;2023-11-21T13:20:28;10.80;99.90
49224;DHT22;35050;51.316;5.994;2023-11-21T13:22:56;10.80;99.90
49224;DHT22;35050;51.316;5.994;2023-11-21T13:25:29;10.80;99.90
49224;DHT22;35050;51.316;5.994;2023-11-21T13:27:57;10.90;99.90
49224;DHT22;35050;51.316;5.994;2023-11-21T13:30:25;10.90;99.90
49224;DHT22;35050;51.316;5.994;2023-11-21T13:32:59;10.90;99.90
49224;DHT22;35050;51.316;5.994;2023-11-21T13:35:32;10.80;99.90
49224;DHT22;35050;51.316;5.994;2023-11-21T13:38:05;10.80;99.90
49224;DHT22;35050;51.316;5.994;2023-11-21T13:40:32;10.80;99.90
49224;DHT22;35050;51.316;5.994;2023-11-21T13:43:00;10.80;99.90
49224;DHT22;35050;51.316;5.994;2023-11-21T13:45:30;10.80;99.90
49224;DHT22;35050;51.316;5.994;2023-11-21T13:47:56;10.80;99.90
49224;DHT22;35050;51.316;5.994;2023-11-21T13:50:26;10.80;99.90
49224;DHT22;35050;51.316;5.994;2023-11-21T13:52:58;10.80;99.90
49224;DHT22;35050;51.316;5.994;2023-11-21T13:55:29;10.80;99.90
49224;DHT22;35050;51.316;5.994;2023-11-21T13:57:55;10.80;99.90
49224;DHT22;35050;51.316;5.994;2023-11-21T14:00:20;10.80;99.90
49224;DHT22;35050;51.316;5.994;2023-11-21T14:03:04;10.90;99.90
49224;DHT22;35050;51.316;5.994;2023-11-21T14:05:34;10.80;99.90
49224;DHT22;35050;51.316;5.994;2023-11-21T14:08:00;10.80;99.90
49224;DHT22;35050;51.316;5.994;2023-11-21T14:10:33;10.80;99.90
49224;DHT22;35050;51.316;5.994;2023-11-21T14:13:06;10.80;99.90
49224;DHT22;35050;51.316;5.994;2023-11-21T14:15:32;10.90;99.90
49224;DHT22;35050;51.316;5.994;2023-11-21T14:17:59;10.80;99.90
49224;DHT22;35050;51.316;5.994;2023-11-21T14:20:30;10.80;99.90
49224;DHT22;35050;51.316;5.994;2023-11-21T14:22:56;10.70;99.90
49224;DHT22;35050;51.316;5.994;2023-11-21T14:25:22;10.80;99.90
49224;DHT22;35050;51.316;5.994;2023-11-21T14:27:48;10.70;99.90
49224;DHT22;35050;51.316;5.994;2023-11-21T14:30:13;10.80;99.90
49224;DHT22;35050;51.316;5.994;2023-11-21T14:32:43;10.80;99.90
49224;DHT22;35050;51.316;5.994;2023-11-21T14:35:09;10.80;99.90
49224;DHT22;35050;51.316;5.994;2023-11-21T14:37:34;11.00;99.90
49224;DHT22;35050;51.316;5.994;2023-11-21T14:40:00;10.80;99.90
49224;DHT22;35050;51.316;5.994;2023-11-21T14:42:26;10.80;99.90
49224;DHT22;35050;51.316;5.994;2023-11-21T14:44:54;10.80;99.90
49224;DHT22;35050;51.316;5.994;2023-11-21T14:47:25;10.80;99.90
49224;DHT22;35050;51.316;5.994;2023-11-21T14:49:52;10.80;99.90
49224;DHT22;35050;51.316;5.994;2023-11-21T14:52:19;10.70;99.90
49224;DHT22;35050;51.316;5.994;2023-11-21T14:55:04;10.60;99.90
49224;DHT22;35050;51.316;5.994;2023-11-21T14:57:48;10.70;99.90
49224;DHT22;35050;51.316;5.994;2023-11-21T15:00:18;11.00;99.90
49224;DHT22;35050;51.316;5.994;2023-11-21T15:02:59;11.20;99.90
49224;DHT22;35050;51.316;5.994;2023-11-21T15:05:26;11.00;99.90
49224;DHT22;35050;51.316;5.994;2023-11-21T15:07:53;11.00;99.90
49224;DHT22;35050;51.316;5.994;2023-11-21T15:10:26;10.90;99.90
49224;DHT22;35050;51.316;5.994;2023-11-21T15:13:04;10.80;99.90
49224;DHT22;35050;51.316;5.994;2023-11-21T15:15:30;10.90;99.90
49224;DHT22;35050;51.316;5.994;2023-11-21T15:17:59;10.80;99.90
49224;DHT22;35050;51.316;5.994;2023-11-21T15:20:25;10.90;99.90
49224;DHT22;35050;51.316;5.994;2023-11-21T15:22:52;10.80;99.90
49224;DHT22;35050;51.316;5.994;2023-11-21T15:25:17;10.90;99.90
49224;DHT22;35050;51.316;5.994;2023-11-21T15:27:43;10.90;99.90
49224;DHT22;35050;51.316;5.994;2023-11-21T15:30:09;10.90;99.90
49224;DHT22;35050;51.316;5.994;2023-11-21T15:32:35;10.90;99.90
49224;DHT22;35050;51.316;5.994;2023-11-21T15:35:00;10.80;99.90
49224;DHT22;35050;51.316;5.994;2023-11-21T15:37:26;10.80;99.90
49224;DHT22;35050;51.316;5.994;2023-11-21T15:39:54;10.70;99.90
49224;DHT22;35050;51.316;5.994;2023-11-21T15:42:19;10.70;99.90
49224;DHT22;35050;51.316;5.994;2023-11-21T15:44:45;10.70;99.90
49224;DHT22;35050;51.316;5.994;2023-11-21T15:47:10;10.60;99.90
49224;DHT22;35050;51.316;5.994;2023-11-21T15:49:36;10.60;99.90
49224;DHT22;35050;51.316;5.994;2023-11-21T15:52:02;10.60;99.90
49224;DHT22;35050;51.316;5.994;2023-11-21T15:54:29;10.50;99.90
49224;DHT22;35050;51.316;5.994;2023-11-21T15:56:55;10.60;99.90
49224;DHT22;35050;51.316;5.994;2023-11-21T15:59:23;10.70;99.90